Airfield :







YOU CAN JOIN US ON...

 
LOGIN :

Register | Disclaimer

   EN    FR    IT 

 









Legend :    VFR   Marginal VFR   IFR   Intensive IFR   Very Intensive IFR
Visi :
Ceiling :
>= 8 km
>= 3000ft
5 to 8 km
1000 to 3000 ft
1500m to 5 km
500 to 1000 ft
800 to 1500m
200 to 500 ft
< 800m
< 200 ft
Symbols :   Thunderstorms  Fog  Heavy snow  Heavy precipitations  Wind > 20 kt






- Airport Elevation : 1166 ft


KMPV - Edward F Knapp State

CURRENT METAR :
  • 200451Z AUTO 32006KT 10SM BKN046 OVC055 M12/M18 A3032 RMK AO2 SLP289 T11221183 400221122

EXPIRED METARs :
  • 200351Z AUTO 32007KT 10SM BKN040 OVC055 M11/M18 A3032 RMK AO2 SLP289 T11061183
  • 200251Z AUTO 30007KT 10SM FEW037 OVC060 M10/M18 A3030 RMK AO2 SLP285 T11001183 51020

TAF KMPV
Valid from the 20 at 03:00 until the 21 at 00:00 UTC


200314Z 2003/2024 31006KT P6SM BKN060
FM201500 31008KT P6SM SCT060



MET'MAP, your aeronautical weather chart ! - Copyright ORBIFLY December 2007 - Disclaimer

ORBIFLY MET'MAP TEAM :

Programming & Development : Alexandra Zaïnal
Concept & original design : Baudouin d'Aumeries
Assistance for programming : Marc-Olivier Méhu
Technical & hardware support : Manuel Goepfert

Contact : metmap@orbifly.com




SOURCES & CREDITS :

   NOAA